createdAt,value
2023-01-02T00:01:38.929Z,97792.00
2023-01-02T00:04:08.310Z,97798.00
2023-01-02T00:06:38.346Z,97794.00
2023-01-02T00:09:08.905Z,97798.00
2023-01-02T00:11:37.253Z,97783.00
2023-01-02T00:14:05.704Z,97781.00
2023-01-02T00:16:34.041Z,97793.00
2023-01-02T00:19:03.763Z,97785.00
2023-01-02T00:21:31.982Z,97783.00
2023-01-02T00:24:00.105Z,97777.00
2023-01-02T00:26:28.790Z,97774.00
2023-01-02T00:28:56.928Z,97771.00
2023-01-02T00:31:25.706Z,97778.00
2023-01-02T00:33:53.888Z,97776.00
2023-01-02T00:36:23.379Z,97775.00
2023-01-02T00:38:51.541Z,97770.00
2023-01-02T00:41:21.337Z,97762.00
2023-01-02T00:43:49.477Z,97772.00
2023-01-02T00:46:18.640Z,97755.00
2023-01-02T00:48:46.805Z,97749.00
2023-01-02T00:51:14.935Z,97761.00
2023-01-02T00:53:44.347Z,97762.00
2023-01-02T00:56:12.460Z,97769.00
2023-01-02T00:58:40.632Z,97752.00
2023-01-02T01:01:08.782Z,97758.00
2023-01-02T01:03:37.056Z,97744.00
2023-01-02T01:06:09.381Z,97755.00
2023-01-02T01:08:39.003Z,97735.00
2023-01-02T01:11:11.047Z,97745.00
2023-01-02T01:13:39.910Z,97735.00
2023-01-02T01:16:10.579Z,97731.00
2023-01-02T01:18:39.876Z,97730.00
2023-01-02T01:21:09.695Z,97725.00
2023-01-02T01:23:38.912Z,97724.00
2023-01-02T01:26:11.541Z,97719.00
2023-01-02T01:28:41.511Z,97709.00
2023-01-02T01:31:13.456Z,97727.00
2023-01-02T01:33:43.399Z,97733.00
2023-01-02T01:36:17.734Z,97726.00
2023-01-02T01:38:46.247Z,97732.00
2023-01-02T01:41:19.826Z,97727.00
2023-01-02T01:43:51.208Z,97711.00
2023-01-02T01:46:30.345Z,97718.00
2023-01-02T01:49:04.972Z,97732.00
2023-01-02T01:51:38.742Z,97724.00
2023-01-02T01:54:10.927Z,97722.00
2023-01-02T01:56:47.246Z,97717.00
2023-01-02T01:59:17.650Z,97707.00
2023-01-02T02:01:48.857Z,97710.00
2023-01-02T02:04:21.270Z,97718.00
2023-01-02T02:06:51.707Z,97717.00
2023-01-02T02:09:27.381Z,97700.00
2023-01-02T02:11:57.427Z,97700.00
2023-01-02T02:14:25.592Z,97707.00
2023-01-02T02:17:03.206Z,97704.00
2023-01-02T02:20:19.598Z,97703.00
2023-01-02T02:23:44.836Z,97693.00
2023-01-02T02:26:56.516Z,97704.00
2023-01-02T02:30:11.501Z,97686.00
2023-01-02T02:33:13.391Z,97675.00
2023-01-02T02:36:00.820Z,97682.00
2023-01-02T02:38:58.659Z,97679.00
2023-01-02T02:41:39.617Z,97683.00
2023-01-02T02:44:26.224Z,97685.00
2023-01-02T02:47:03.948Z,97684.00
2023-01-02T02:49:47.257Z,97682.00
2023-01-02T02:52:23.797Z,97689.00
2023-01-02T02:55:01.365Z,97680.00
2023-01-02T02:57:32.334Z,97684.00
2023-01-02T03:00:00.853Z,97680.00
2023-01-02T03:02:30.444Z,97669.00
2023-01-02T03:05:06.605Z,97679.00
2023-01-02T03:07:45.478Z,97673.00
2023-01-02T03:10:29.078Z,97677.00
2023-01-02T03:13:12.816Z,97669.00
2023-01-02T03:15:49.843Z,97666.00
2023-01-02T03:18:37.219Z,97660.00
2023-01-02T03:21:11.372Z,97668.00
2023-01-02T03:23:45.403Z,97682.00
2023-01-02T03:26:17.922Z,97670.00
2023-01-02T03:28:51.840Z,97667.00
2023-01-02T03:31:24.636Z,97669.00
2023-01-02T03:34:02.032Z,97669.00
2023-01-02T03:36:34.745Z,97661.00
2023-01-02T03:39:12.188Z,97663.00
2023-01-02T03:41:47.893Z,97647.00
2023-01-02T03:44:18.673Z,97648.00
2023-01-02T03:46:54.410Z,97638.00
2023-01-02T03:49:31.631Z,97650.00
2023-01-02T03:52:00.260Z,97640.00
2023-01-02T03:54:30.759Z,97658.00
2023-01-02T03:57:10.213Z,97659.00
2023-01-02T03:59:49.680Z,97663.00
2023-01-02T04:02:30.126Z,97649.00
2023-01-02T04:05:05.411Z,97646.00
2023-01-02T04:07:45.100Z,97638.00
2023-01-02T04:10:16.426Z,97641.00
2023-01-02T04:12:51.894Z,97656.00
2023-01-02T04:15:26.109Z,97661.00
2023-01-02T04:18:00.523Z,97659.00
2023-01-02T04:20:35.497Z,97655.00
2023-01-02T04:23:09.237Z,97651.00
2023-01-02T04:25:46.667Z,97650.00
2023-01-02T04:28:23.545Z,97652.00
2023-01-02T04:30:58.675Z,97656.00
2023-01-02T04:33:29.197Z,97650.00
2023-01-02T04:35:58.735Z,97645.00
2023-01-02T04:38:26.862Z,97654.00
2023-01-02T04:40:54.999Z,97643.00
2023-01-02T04:43:24.594Z,97625.00
2023-01-02T04:45:52.822Z,97647.00
2023-01-02T04:48:20.982Z,97661.00
2023-01-02T04:50:49.649Z,97658.00
2023-01-02T04:53:19.165Z,97665.00
2023-01-02T04:55:47.327Z,97665.00
2023-01-02T04:58:15.510Z,97659.00
2023-01-02T05:00:43.590Z,97658.00
2023-01-02T05:03:11.716Z,97659.00
2023-01-02T05:05:39.907Z,97660.00
2023-01-02T05:08:13.871Z,97647.00
2023-01-02T05:10:45.502Z,97651.00
2023-01-02T05:13:13.559Z,97655.00
2023-01-02T05:15:43.211Z,97665.00
2023-01-02T05:18:11.286Z,97661.00
2023-01-02T05:20:39.477Z,97652.00
2023-01-02T05:23:25.315Z,97659.00
2023-01-02T05:25:54.740Z,97666.00
2023-01-02T05:28:22.938Z,97663.00
2023-01-02T05:30:55.671Z,97672.00
2023-01-02T05:33:23.769Z,97671.00
2023-01-02T05:35:51.882Z,97666.00
2023-01-02T05:38:19.994Z,97663.00
2023-01-02T05:40:48.110Z,97664.00
2023-01-02T05:43:17.548Z,97660.00
2023-01-02T05:45:45.633Z,97668.00
2023-01-02T05:48:13.705Z,97678.00
2023-01-02T05:50:41.795Z,97668.00
2023-01-02T05:53:11.516Z,97669.00
2023-01-02T05:55:39.635Z,97662.00
2023-01-02T05:58:07.744Z,97672.00
2023-01-02T06:00:37.195Z,97664.00
2023-01-02T06:03:05.512Z,97676.00
2023-01-02T06:05:33.671Z,97675.00
2023-01-02T06:08:01.899Z,97667.00
2023-01-02T06:10:30.139Z,97672.00
2023-01-02T06:12:58.599Z,97681.00
2023-01-02T06:15:26.784Z,97687.00
2023-01-02T06:17:56.300Z,97682.00
2023-01-02T06:20:24.367Z,97686.00
2023-01-02T06:22:52.478Z,97693.00
2023-01-02T06:25:21.135Z,97672.00
2023-01-02T06:27:49.251Z,97670.00
2023-01-02T06:30:17.580Z,97689.00
2023-01-02T06:32:46.375Z,97691.00
2023-01-02T06:35:15.961Z,97695.00
2023-01-02T06:37:44.980Z,97686.00
2023-01-02T06:40:13.432Z,97690.00
2023-01-02T06:42:43.660Z,97681.00
2023-01-02T06:45:13.222Z,97688.00
2023-01-02T06:47:41.372Z,97677.00
2023-01-02T06:50:10.852Z,97680.00
2023-01-02T06:52:40.473Z,97684.00
2023-01-02T06:55:09.289Z,97690.00
2023-01-02T06:57:37.362Z,97685.00
2023-01-02T07:00:06.495Z,97688.00
2023-01-02T07:02:34.724Z,97687.00
2023-01-02T07:05:02.925Z,97687.00
2023-01-02T07:07:31.094Z,97691.00
2023-01-02T07:10:00.565Z,97700.00
2023-01-02T07:12:28.672Z,97694.00
2023-01-02T07:14:56.792Z,97701.00
2023-01-02T07:17:25.046Z,97694.00
2023-01-02T07:19:55.229Z,97689.00
2023-01-02T07:22:25.489Z,97707.00
2023-01-02T07:24:53.588Z,97696.00
2023-01-02T07:27:23.018Z,97683.00
2023-01-02T07:29:51.144Z,97697.00
2023-01-02T07:32:27.112Z,97695.00
2023-01-02T07:34:55.803Z,97699.00
2023-01-02T07:37:23.979Z,97705.00
2023-01-02T07:39:52.163Z,97706.00
2023-01-02T07:42:20.308Z,97708.00
2023-01-02T07:44:49.796Z,97712.00
2023-01-02T07:47:17.937Z,97701.00
2023-01-02T07:49:46.746Z,97702.00
2023-01-02T07:52:14.909Z,97705.00
2023-01-02T07:54:42.994Z,97704.00
2023-01-02T07:57:11.098Z,97725.00
2023-01-02T07:59:39.202Z,97712.00
2023-01-02T08:02:12.217Z,97719.00
2023-01-02T08:04:40.526Z,97705.00
2023-01-02T08:07:10.450Z,97710.00
2023-01-02T08:09:38.650Z,97733.00
2023-01-02T08:12:07.187Z,97719.00
2023-01-02T08:14:35.359Z,97722.00
2023-01-02T08:17:04.007Z,97724.00
2023-01-02T08:19:33.592Z,97715.00
2023-01-02T08:22:01.757Z,97719.00
2023-01-02T08:24:29.885Z,97723.00
2023-01-02T08:26:58.013Z,97722.00
2023-01-02T08:29:26.232Z,97733.00
2023-01-02T08:31:54.325Z,97721.00
2023-01-02T08:34:22.497Z,97723.00
2023-01-02T08:36:52.410Z,97723.00
2023-01-02T08:39:21.048Z,97724.00
2023-01-02T08:41:49.233Z,97721.00
2023-01-02T08:44:17.382Z,97752.00
2023-01-02T08:46:45.636Z,97741.00
2023-01-02T08:49:13.813Z,97732.00
2023-01-02T08:51:42.049Z,97743.00
2023-01-02T08:54:11.471Z,97742.00
2023-01-02T08:56:41.331Z,97743.00
2023-01-02T08:59:12.789Z,97737.00
2023-01-02T09:01:41.913Z,97748.00
2023-01-02T09:04:12.760Z,97749.00
2023-01-02T09:06:43.254Z,97750.00
2023-01-02T09:09:15.461Z,97762.00
2023-01-02T09:11:48.981Z,97762.00
2023-01-02T09:14:18.494Z,97760.00
2023-01-02T09:16:47.336Z,97765.00
2023-01-02T09:19:15.873Z,97759.00
2023-01-02T09:21:44.079Z,97771.00
2023-01-02T09:24:14.514Z,97775.00
2023-01-02T09:26:43.150Z,97774.00
2023-01-02T09:29:12.639Z,97775.00
2023-01-02T09:31:43.747Z,97775.00
2023-01-02T09:34:12.356Z,97783.00
2023-01-02T09:36:40.805Z,97778.00
2023-01-02T09:39:14.181Z,97775.00
2023-01-02T09:41:45.311Z,97787.00
2023-01-02T09:44:19.798Z,97771.00
2023-01-02T09:46:55.414Z,97773.00
2023-01-02T09:49:28.898Z,97782.00
2023-01-02T09:51:58.051Z,97776.00
2023-01-02T09:54:31.764Z,97762.00
2023-01-02T09:57:29.249Z,97769.00
2023-01-02T10:00:05.249Z,97773.00
2023-01-02T10:02:56.632Z,97777.00
2023-01-02T10:06:06.696Z,97772.00
2023-01-02T10:08:49.037Z,97762.00
2023-01-02T10:11:41.980Z,97775.00
2023-01-02T10:14:21.900Z,97772.00
2023-01-02T10:16:56.713Z,97773.00
2023-01-02T10:19:37.891Z,97780.00
2023-01-02T10:22:10.059Z,97783.00
2023-01-02T10:24:44.804Z,97781.00
2023-01-02T10:27:24.597Z,97784.00
2023-01-02T10:30:05.189Z,97778.00
2023-01-02T10:32:36.031Z,97777.00
2023-01-02T10:35:27.392Z,97784.00
2023-01-02T10:37:57.301Z,97796.00
2023-01-02T10:40:26.779Z,97786.00
2023-01-02T10:43:00.392Z,97773.00
2023-01-02T10:45:29.794Z,97784.00
2023-01-02T10:48:00.474Z,97771.00
2023-01-02T10:50:37.224Z,97769.00
2023-01-02T10:53:09.602Z,97762.00
2023-01-02T10:55:42.199Z,97762.00
2023-01-02T10:58:22.797Z,97773.00
2023-01-02T11:01:03.938Z,97751.00
2023-01-02T11:03:38.519Z,97773.00
2023-01-02T11:06:35.089Z,97765.00
2023-01-02T11:09:20.992Z,97754.00
2023-01-02T11:11:56.118Z,97760.00
2023-01-02T11:14:31.951Z,97759.00
2023-01-02T11:17:07.928Z,97755.00
2023-01-02T11:19:43.796Z,97750.00
2023-01-02T11:22:15.207Z,97761.00
2023-01-02T11:25:00.751Z,97757.00
2023-01-02T11:27:34.971Z,97770.00
2023-01-02T11:30:10.043Z,97768.00
2023-01-02T11:32:41.672Z,97770.00
2023-01-02T11:35:38.238Z,97772.00
2023-01-02T11:38:14.337Z,97775.00
2023-01-02T11:40:58.676Z,97775.00
2023-01-02T11:43:50.288Z,97776.00
2023-01-02T11:46:29.187Z,97767.00
2023-01-02T11:49:06.563Z,97775.00
2023-01-02T11:51:39.095Z,97775.00
2023-01-02T11:54:15.382Z,97784.00
2023-01-02T11:56:46.923Z,97782.00
2023-01-02T11:59:20.622Z,97786.00
2023-01-02T12:02:00.131Z,97770.00
2023-01-02T12:04:29.485Z,97779.00
2023-01-02T12:07:30.014Z,97777.00
2023-01-02T12:10:10.691Z,97775.00
2023-01-02T12:12:56.458Z,97787.00
2023-01-02T12:15:57.459Z,97800.00
2023-01-02T12:18:49.149Z,97797.00
2023-01-02T12:21:24.863Z,97811.00
2023-01-02T12:24:31.511Z,97793.00
2023-01-02T12:27:09.339Z,97806.00
2023-01-02T12:30:01.612Z,97799.00
2023-01-02T12:33:13.808Z,97809.00
2023-01-02T12:36:20.365Z,97803.00
2023-01-02T12:39:18.926Z,97804.00
2023-01-02T12:42:02.420Z,97802.00
2023-01-02T12:44:50.818Z,97819.00
2023-01-02T12:48:03.617Z,97813.00
2023-01-02T12:51:09.380Z,97796.00
2023-01-02T12:54:18.820Z,97800.00
2023-01-02T12:57:03.533Z,97812.00
2023-01-02T13:00:12.610Z,97810.00
2023-01-02T13:03:04.714Z,97813.00
2023-01-02T13:05:41.321Z,97811.00
2023-01-02T13:08:20.528Z,97813.00
2023-01-02T13:10:51.560Z,97816.00
2023-01-02T13:13:20.482Z,97812.00
2023-01-02T13:15:53.433Z,97820.00
2023-01-02T13:18:33.182Z,97826.00
2023-01-02T13:21:11.049Z,97820.00
2023-01-02T13:23:43.402Z,97826.00
2023-01-02T13:26:18.884Z,97819.00
2023-01-02T13:28:57.143Z,97818.00
2023-01-02T13:34:21.901Z,97824.00
2023-01-02T13:36:58.365Z,97817.00
2023-01-02T13:39:31.468Z,97824.00
2023-01-02T13:42:22.546Z,97827.00
2023-01-02T13:44:54.605Z,97827.00
2023-01-02T13:47:35.003Z,97812.00
2023-01-02T13:50:16.797Z,97822.00
2023-01-02T13:53:03.802Z,97810.00
2023-01-02T13:55:35.308Z,97823.00
2023-01-02T13:59:06.645Z,97821.00
2023-01-02T14:02:20.992Z,97837.00
2023-01-02T14:04:49.454Z,97826.00
2023-01-02T14:07:48.731Z,97837.00
2023-01-02T14:10:39.472Z,97846.00
2023-01-02T14:13:19.544Z,97841.00
2023-01-02T14:16:31.679Z,97846.00
2023-01-02T14:19:18.136Z,97847.00
2023-01-02T14:21:51.503Z,97848.00
2023-01-02T14:24:32.026Z,97849.00
2023-01-02T14:27:04.602Z,97835.00
2023-01-02T14:29:43.098Z,97851.00
2023-01-02T14:32:24.364Z,97860.00
2023-01-02T14:34:57.850Z,97864.00
2023-01-02T14:37:38.956Z,97864.00
2023-01-02T14:40:33.532Z,97860.00
2023-01-02T14:43:24.005Z,97866.00
2023-01-02T14:45:58.225Z,97878.00
2023-01-02T14:48:36.022Z,97878.00
2023-01-02T14:51:10.534Z,97883.00
2023-01-02T14:53:49.191Z,97875.00
2023-01-02T14:56:22.801Z,97883.00
2023-01-02T14:58:53.279Z,97884.00
2023-01-02T15:01:43.664Z,97900.00
2023-01-02T15:04:24.084Z,97893.00
2023-01-02T15:07:09.636Z,97897.00
2023-01-02T15:09:44.035Z,97907.00
2023-01-02T15:12:42.231Z,97908.00
2023-01-02T15:15:13.203Z,97896.00
2023-01-02T15:17:42.615Z,97900.00
2023-01-02T15:20:20.470Z,97908.00
2023-01-02T15:22:49.403Z,97908.00
2023-01-02T15:25:37.373Z,97909.00
2023-01-02T15:28:07.282Z,97919.00
2023-01-02T15:30:39.971Z,97934.00
2023-01-02T15:33:29.541Z,97925.00
2023-01-02T15:36:03.248Z,97937.00
2023-01-02T15:38:32.618Z,97928.00
2023-01-02T15:41:00.991Z,97938.00
2023-01-02T15:43:51.597Z,97943.00
2023-01-02T15:46:20.911Z,97928.00
2023-01-02T15:48:50.869Z,97943.00
2023-01-02T15:51:41.364Z,97944.00
2023-01-02T15:54:15.090Z,97965.00
2023-01-02T15:56:46.575Z,97961.00
2023-01-02T15:59:30.444Z,97957.00
2023-01-02T16:01:58.743Z,97970.00
2023-01-02T16:04:30.299Z,97962.00
2023-01-02T16:07:15.789Z,97962.00
2023-01-02T16:09:55.551Z,97977.00
2023-01-02T16:12:24.761Z,97971.00
2023-01-02T16:14:56.925Z,97962.00
2023-01-02T16:17:29.906Z,97967.00
2023-01-02T16:20:01.001Z,97980.00
2023-01-02T16:22:42.382Z,97981.00
2023-01-02T16:25:18.917Z,97980.00
2023-01-02T16:27:54.991Z,97969.00
2023-01-02T16:30:38.091Z,97987.00
2023-01-02T16:33:21.695Z,97996.00
2023-01-02T16:36:00.242Z,97987.00
2023-01-02T16:38:30.855Z,97993.00
2023-01-02T16:41:04.338Z,97989.00
2023-01-02T16:43:42.914Z,97991.00
2023-01-02T16:46:16.921Z,98000.00
2023-01-02T16:48:45.847Z,98000.00
2023-01-02T16:51:16.794Z,98005.00
2023-01-02T16:53:46.795Z,97999.00
2023-01-02T16:56:16.768Z,97994.00
2023-01-02T16:58:45.047Z,98000.00
2023-01-02T17:01:17.597Z,98012.00
2023-01-02T17:03:46.302Z,97994.00
2023-01-02T17:06:19.225Z,98002.00
2023-01-02T17:08:49.049Z,98008.00
2023-01-02T17:11:22.641Z,98004.00
2023-01-02T17:13:52.047Z,98022.00
2023-01-02T17:16:21.731Z,98010.00
2023-01-02T17:18:50.187Z,98017.00
2023-01-02T17:21:18.610Z,98016.00
2023-01-02T17:23:48.209Z,98021.00
2023-01-02T17:26:16.474Z,98018.00
2023-01-02T17:28:44.794Z,98034.00
2023-01-02T17:31:17.038Z,98035.00
2023-01-02T17:33:47.086Z,98042.00
2023-01-02T17:36:16.354Z,98053.00
2023-01-02T17:38:44.566Z,98054.00
2023-01-02T17:41:14.665Z,98069.00
2023-01-02T17:44:01.762Z,98080.00
2023-01-02T17:47:04.352Z,98071.00
2023-01-02T17:49:20.937Z,98058.00
2023-01-02T17:51:49.339Z,98061.00
2023-01-02T17:54:17.761Z,98062.00
2023-01-02T17:56:47.476Z,98067.00
2023-01-02T17:59:19.224Z,98066.00
2023-01-02T18:01:48.562Z,98064.00
2023-01-02T18:04:19.497Z,98064.00
2023-01-02T18:06:47.962Z,98068.00
2023-01-02T18:09:16.150Z,98062.00
2023-01-02T18:11:44.309Z,98062.00
2023-01-02T18:14:19.017Z,98057.00
2023-01-02T18:16:50.597Z,98062.00
2023-01-02T18:19:22.718Z,98070.00
2023-01-02T18:21:51.638Z,98070.00
2023-01-02T18:24:27.414Z,98066.00
2023-01-02T18:27:00.836Z,98069.00
2023-01-02T18:29:30.452Z,98070.00
2023-01-02T18:31:59.201Z,98062.00
2023-01-02T18:34:48.151Z,98076.00
2023-01-02T18:37:23.368Z,98072.00
2023-01-02T18:39:52.406Z,98075.00
2023-01-02T18:42:26.408Z,98085.00
2023-01-02T18:44:59.056Z,98095.00
2023-01-02T18:47:29.721Z,98099.00
2023-01-02T18:50:03.281Z,98099.00
2023-01-02T18:52:34.545Z,98095.00
2023-01-02T18:55:21.047Z,98093.00
2023-01-02T18:57:55.321Z,98090.00
2023-01-02T19:00:28.772Z,98109.00
2023-01-02T19:03:01.858Z,98117.00
2023-01-02T19:05:32.510Z,98107.00
2023-01-02T19:08:23.559Z,98113.00
2023-01-02T19:10:55.291Z,98119.00
2023-01-02T19:13:26.507Z,98128.00
2023-01-02T19:16:05.714Z,98128.00
2023-01-02T19:18:40.357Z,98132.00
2023-01-02T19:21:19.344Z,98140.00
2023-01-02T19:23:58.061Z,98136.00
2023-01-02T19:26:32.907Z,98134.00
2023-01-02T19:29:09.636Z,98138.00
2023-01-02T19:31:44.834Z,98136.00
2023-01-02T19:34:43.129Z,98155.00
2023-01-02T19:37:39.032Z,98180.00
2023-01-02T19:40:19.021Z,98166.00
2023-01-02T19:42:48.817Z,98186.00
2023-01-02T19:45:21.164Z,98178.00
2023-01-02T19:47:52.097Z,98180.00
2023-01-02T19:50:23.558Z,98181.00
2023-01-02T19:52:52.521Z,98181.00
2023-01-02T19:55:21.080Z,98189.00
2023-01-02T19:57:49.378Z,98182.00
2023-01-02T20:00:19.228Z,98178.00
2023-01-02T20:02:50.444Z,98183.00
2023-01-02T20:05:22.239Z,98180.00
2023-01-02T20:07:53.366Z,98187.00
2023-01-02T20:10:22.315Z,98198.00
2023-01-02T20:12:50.812Z,98200.00
2023-01-02T20:15:23.354Z,98198.00
2023-01-02T20:17:53.085Z,98217.00
2023-01-02T20:20:25.221Z,98210.00
2023-01-02T20:22:54.825Z,98226.00
2023-01-02T20:25:26.398Z,98234.00
2023-01-02T20:27:56.779Z,98249.00
2023-01-02T20:30:26.277Z,98221.00
2023-01-02T20:32:56.245Z,98238.00
2023-01-02T20:35:25.771Z,98237.00
2023-01-02T20:37:53.930Z,98241.00
2023-01-02T20:40:24.893Z,98246.00
2023-01-02T20:42:53.044Z,98270.00
2023-01-02T20:45:21.229Z,98271.00
2023-01-02T20:47:49.377Z,98270.00
2023-01-02T20:50:17.805Z,98283.00
2023-01-02T20:52:49.994Z,98273.00
2023-01-02T20:55:21.864Z,98272.00
2023-01-02T20:57:51.611Z,98272.00
2023-01-02T21:00:21.641Z,98279.00
2023-01-02T21:02:49.982Z,98273.00
2023-01-02T21:05:18.551Z,98290.00
2023-01-02T21:07:48.173Z,98292.00
2023-01-02T21:10:16.689Z,98286.00
2023-01-02T21:13:02.610Z,98284.00
2023-01-02T21:15:44.795Z,98288.00
2023-01-02T21:18:18.592Z,98286.00
2023-01-02T21:20:49.225Z,98307.00
2023-01-02T21:23:20.780Z,98305.00
2023-01-02T21:25:50.439Z,98308.00
2023-01-02T21:28:20.352Z,98323.00
2023-01-02T21:30:49.477Z,98329.00
2023-01-02T21:33:20.040Z,98330.00
2023-01-02T21:35:49.969Z,98318.00
2023-01-02T21:38:21.755Z,98322.00
2023-01-02T21:40:50.282Z,98327.00
2023-01-02T21:43:18.410Z,98322.00
2023-01-02T21:45:46.643Z,98329.00
2023-01-02T21:48:14.848Z,98338.00
2023-01-02T21:50:43.054Z,98341.00
2023-01-02T21:53:12.447Z,98335.00
2023-01-02T21:55:41.986Z,98345.00
2023-01-02T21:58:13.248Z,98350.00
2023-01-02T22:00:42.289Z,98368.00
2023-01-02T22:03:10.801Z,98360.00
2023-01-02T22:05:39.122Z,98366.00
2023-01-02T22:08:07.826Z,98360.00
2023-01-02T22:10:35.975Z,98364.00
2023-01-02T22:13:05.546Z,98373.00
2023-01-02T22:15:33.715Z,98356.00
2023-01-02T22:18:01.849Z,98363.00
2023-01-02T22:20:30.048Z,98368.00
2023-01-02T22:22:58.614Z,98369.00
2023-01-02T22:25:26.927Z,98377.00
2023-01-02T22:27:55.223Z,98376.00
2023-01-02T22:30:33.468Z,98394.00
2023-01-02T22:33:02.840Z,98401.00
2023-01-02T22:35:31.128Z,98386.00
2023-01-02T22:37:59.349Z,98397.00
2023-01-02T22:40:28.850Z,98408.00
2023-01-02T22:43:05.675Z,98428.00
2023-01-02T22:45:41.727Z,98422.00
2023-01-02T22:48:20.193Z,98433.00
2023-01-02T22:50:51.418Z,98426.00
2023-01-02T22:53:23.636Z,98432.00
2023-01-02T22:55:52.134Z,98431.00
2023-01-02T22:58:21.271Z,98445.00
2023-01-02T23:00:58.703Z,98447.00
2023-01-02T23:03:30.600Z,98449.00
2023-01-02T23:05:59.317Z,98459.00
2023-01-02T23:08:27.576Z,98447.00
2023-01-02T23:10:55.975Z,98451.00
2023-01-02T23:13:24.503Z,98438.00
2023-01-02T23:16:11.678Z,98440.00
2023-01-02T23:18:57.886Z,98449.00
2023-01-02T23:21:27.985Z,98451.00
2023-01-02T23:23:56.391Z,98442.00
2023-01-02T23:26:29.668Z,98457.00
2023-01-02T23:29:07.017Z,98452.00
2023-01-02T23:31:40.580Z,98454.00
2023-01-02T23:34:09.963Z,98457.00
2023-01-02T23:36:39.454Z,98483.00
2023-01-02T23:39:11.995Z,98482.00
2023-01-02T23:41:41.453Z,98471.00
2023-01-02T23:44:10.289Z,98475.00
2023-01-02T23:46:41.016Z,98479.00
2023-01-02T23:49:10.728Z,98479.00
2023-01-02T23:51:39.739Z,98477.00
2023-01-02T23:54:09.973Z,98477.00
2023-01-02T23:56:41.455Z,98491.00
2023-01-02T23:59:14.105Z,98492.00
